Time;durP1;ratioP1;P1;durP2;ratioP2;P2;SDS_P1;SDS_P2;PMS_P1;PMS_P2;Temp;Humidity;BMP_temperature;BMP_pressure;BME280_temperature;BME280_humidity;BME280_pressure;Samples;Min_cycle;Max_cycle;Signal;HPM_P1;HPM_P2
2023/05/20 00:01:58;;;;;;;10.13;4.30;;;11.40;99.90;;;;;;5053385;28;20071;-71
2023/05/20 00:04:24;;;;;;;11.05;4.30;;;11.40;99.90;;;;;;5052299;28;20083;-70
2023/05/20 00:06:49;;;;;;;9.82;4.32;;;11.40;99.90;;;;;;5053575;28;20041;-71
2023/05/20 00:09:18;;;;;;;12.00;4.00;;;11.40;99.90;;;;;;5041372;28;20397;-70
2023/05/20 00:11:44;;;;;;;12.27;4.97;;;11.40;99.90;;;;;;5034684;28;20033;-70
2023/05/20 00:14:10;;;;;;;10.85;4.57;;;11.30;99.90;;;;;;5056341;28;20037;-71
2023/05/20 00:16:36;;;;;;;9.80;4.35;;;11.30;99.90;;;;;;5033428;28;20121;-70
2023/05/20 00:19:01;;;;;;;11.30;4.40;;;11.40;99.90;;;;;;5033217;28;20037;-71
2023/05/20 00:21:27;;;;;;;11.07;4.38;;;11.40;99.90;;;;;;5033094;28;20057;-70
2023/05/20 00:23:52;;;;;;;11.73;4.05;;;11.40;99.90;;;;;;5035888;28;20037;-71
2023/05/20 00:26:18;;;;;;;10.27;4.10;;;11.40;99.90;;;;;;5051679;28;20124;-71
2023/05/20 00:28:44;;;;;;;12.80;4.40;;;11.30;99.90;;;;;;5052769;28;20041;-71
2023/05/20 00:31:09;;;;;;;10.88;4.50;;;11.30;99.90;;;;;;5051424;28;20044;-71
2023/05/20 00:33:35;;;;;;;11.63;4.72;;;11.30;99.90;;;;;;5032430;28;20571;-71
2023/05/20 00:36:01;;;;;;;10.57;4.40;;;11.20;99.90;;;;;;5034090;28;20044;-71
2023/05/20 00:38:26;;;;;;;11.70;4.10;;;11.20;99.90;;;;;;5033827;28;20041;-71
2023/05/20 00:40:52;;;;;;;10.05;4.65;;;11.20;99.90;;;;;;5049451;28;20191;-71
2023/05/20 00:43:19;;;;;;;12.93;4.53;;;11.20;99.90;;;;;;5032626;28;20042;-71
2023/05/20 00:45:45;;;;;;;13.50;6.28;;;11.20;99.90;;;;;;5038770;28;20059;-71
2023/05/20 00:48:12;;;;;;;12.60;4.93;;;11.20;99.90;;;;;;5050145;28;20488;-70
2023/05/20 00:50:38;;;;;;;10.38;4.57;;;11.10;99.90;;;;;;5033678;28;20517;-71
2023/05/20 00:53:05;;;;;;;10.98;3.90;;;11.20;99.90;;;;;;5049641;28;20049;-71
2023/05/20 00:55:31;;;;;;;12.32;4.60;;;11.20;99.90;;;;;;5053765;28;20442;-71
2023/05/20 00:57:57;;;;;;;11.15;4.80;;;11.20;99.90;;;;;;5052310;28;20060;-72
2023/05/20 01:00:22;;;;;;;9.85;4.57;;;11.20;99.90;;;;;;5035585;28;20448;-71
2023/05/20 01:02:48;;;;;;;9.30;4.75;;;11.20;99.90;;;;;;5052216;28;20086;-71
2023/05/20 01:05:14;;;;;;;9.35;4.20;;;11.10;99.90;;;;;;5051462;28;20049;-71
2023/05/20 01:07:40;;;;;;;11.23;4.88;;;11.10;99.90;;;;;;5052057;28;20112;-70
2023/05/20 01:10:06;;;;;;;12.38;4.78;;;11.10;99.90;;;;;;5048970;28;20378;-71
2023/05/20 01:12:41;;;;;;;12.10;5.20;;;11.10;99.90;;;;;;5032397;28;20486;-71
2023/05/20 01:15:12;;;;;;;12.23;4.60;;;11.10;99.90;;;;;;5031862;28;20120;-71
2023/05/20 01:17:48;;;;;;;9.90;4.40;;;11.00;99.90;;;;;;5050454;28;20044;-71
2023/05/20 01:20:14;;;;;;;9.88;4.40;;;11.00;99.90;;;;;;5032453;28;20132;-71
2023/05/20 01:22:53;;;;;;;10.40;4.68;;;10.90;99.90;;;;;;5015539;28;20044;-70
2023/05/20 01:25:18;;;;;;;10.10;4.75;;;10.90;99.90;;;;;;5048549;28;20103;-70
2023/05/20 01:27:45;;;;;;;11.20;4.25;;;10.90;99.90;;;;;;5035081;28;20041;-71
2023/05/20 01:30:12;;;;;;;10.82;4.45;;;10.80;99.90;;;;;;5031878;28;20057;-70
2023/05/20 01:32:42;;;;;;;8.45;4.43;;;10.80;99.90;;;;;;5048382;28;20563;-71
2023/05/20 01:35:09;;;;;;;12.80;5.03;;;10.80;99.90;;;;;;5031560;28;20095;-68
2023/05/20 01:37:40;;;;;;;10.52;4.15;;;10.80;99.90;;;;;;5031909;28;20049;-68
2023/05/20 01:40:15;;;;;;;11.13;4.53;;;10.80;99.90;;;;;;5065471;28;20603;-68
2023/05/20 01:42:42;;;;;;;11.00;4.38;;;10.80;99.90;;;;;;5051783;28;20073;-69
2023/05/20 01:45:08;;;;;;;10.20;4.78;;;10.80;99.90;;;;;;5034723;28;20134;-69
2023/05/20 01:47:34;;;;;;;10.18;4.50;;;10.80;99.90;;;;;;5052262;28;20049;-68
2023/05/20 01:50:00;;;;;;;13.13;4.45;;;10.80;99.90;;;;;;5050797;28;20159;-69
2023/05/20 01:52:25;;;;;;;10.35;4.03;;;10.80;99.90;;;;;;5051460;28;20053;-69
2023/05/20 01:54:51;;;;;;;9.48;4.00;;;10.90;99.90;;;;;;5054539;28;20149;-68
2023/05/20 01:57:21;;;;;;;9.38;4.45;;;10.80;99.90;;;;;;5055707;28;20098;-68
2023/05/20 01:59:47;;;;;;;10.07;4.47;;;10.80;99.90;;;;;;5040963;28;20045;-68
2023/05/20 02:02:13;;;;;;;10.13;4.22;;;10.90;99.90;;;;;;5035583;28;20500;-69
2023/05/20 02:04:41;;;;;;;9.43;4.38;;;10.80;99.90;;;;;;5037103;28;20076;-69
2023/05/20 02:07:06;;;;;;;10.35;4.57;;;10.80;99.90;;;;;;5035656;28;20406;-68
2023/05/20 02:09:32;;;;;;;7.70;3.70;;;10.80;99.90;;;;;;5039441;28;20030;-68
2023/05/20 02:11:58;;;;;;;10.45;4.32;;;10.80;99.90;;;;;;5018929;28;20033;-70
2023/05/20 02:14:23;;;;;;;9.90;4.18;;;10.80;99.90;;;;;;5036649;28;20029;-70
2023/05/20 02:16:49;;;;;;;8.95;4.35;;;10.80;99.90;;;;;;5040540;28;20713;-71
2023/05/20 02:19:22;;;;;;;11.20;4.80;;;10.80;99.90;;;;;;5046235;28;20075;-70
2023/05/20 02:21:48;;;;;;;9.15;4.18;;;10.70;99.90;;;;;;5052236;28;20354;-70
2023/05/20 02:24:13;;;;;;;11.02;4.18;;;10.70;99.90;;;;;;5053816;28;20076;-71
2023/05/20 02:26:40;;;;;;;9.88;4.20;;;10.80;99.90;;;;;;5051696;28;20065;-70
2023/05/20 02:29:05;;;;;;;8.02;3.97;;;10.80;99.90;;;;;;5040925;28;20037;-70
2023/05/20 02:31:31;;;;;;;11.80;4.07;;;10.80;99.90;;;;;;5035443;28;20037;-71
2023/05/20 02:33:56;;;;;;;9.43;4.53;;;10.80;99.90;;;;;;5036173;28;20033;-71
2023/05/20 02:36:22;;;;;;;8.40;3.80;;;10.80;99.90;;;;;;5038993;28;20033;-70
2023/05/20 02:38:48;;;;;;;10.90;4.15;;;10.70;99.90;;;;;;5036271;28;20061;-71
2023/05/20 02:41:13;;;;;;;11.43;3.85;;;10.80;99.90;;;;;;5039449;28;20060;-71
2023/05/20 02:43:39;;;;;;;11.32;4.63;;;10.80;99.90;;;;;;5040423;28;20037;-71
2023/05/20 02:46:05;;;;;;;8.95;4.03;;;10.80;99.90;;;;;;5034162;28;20038;-71
2023/05/20 02:48:31;;;;;;;8.23;3.97;;;10.90;99.90;;;;;;5042962;28;20481;-70
2023/05/20 02:50:58;;;;;;;10.05;4.07;;;10.80;99.90;;;;;;5040391;28;20095;-71
2023/05/20 02:53:24;;;;;;;9.20;4.30;;;10.90;99.90;;;;;;5034102;28;20049;-71
2023/05/20 02:55:50;;;;;;;8.13;4.18;;;10.80;99.90;;;;;;5036098;28;20037;-71
2023/05/20 02:58:16;;;;;;;8.10;4.00;;;10.90;99.90;;;;;;5052094;28;20397;-70
2023/05/20 03:00:42;;;;;;;11.23;4.38;;;10.80;99.90;;;;;;5046962;28;20041;-71
2023/05/20 03:03:09;;;;;;;15.13;4.30;;;10.90;99.90;;;;;;5035499;28;20048;-71
2023/05/20 03:05:37;;;;;;;10.13;4.30;;;10.80;99.90;;;;;;5033751;28;20041;-71
2023/05/20 03:08:10;;;;;;;9.27;3.80;;;10.80;99.90;;;;;;5065625;28;20037;-70
2023/05/20 03:10:38;;;;;;;7.97;3.97;;;10.80;99.90;;;;;;5042366;28;20037;-70
2023/05/20 03:13:07;;;;;;;11.27;4.03;;;10.80;99.90;;;;;;5048872;28;20048;-71
2023/05/20 03:15:34;;;;;;;8.07;3.53;;;10.80;99.90;;;;;;5052066;28;20037;-71
2023/05/20 03:18:00;;;;;;;9.80;3.92;;;10.80;99.90;;;;;;5049983;28;20498;-70
2023/05/20 03:20:27;;;;;;;8.48;3.72;;;10.80;99.90;;;;;;5044954;28;20130;-70
2023/05/20 03:22:53;;;;;;;8.10;3.70;;;10.80;99.90;;;;;;5057095;28;20038;-70
2023/05/20 03:25:19;;;;;;;8.35;3.75;;;10.80;99.90;;;;;;5039032;28;20482;-71
2023/05/20 03:27:45;;;;;;;8.63;3.65;;;10.80;99.90;;;;;;5057421;28;20040;-70
2023/05/20 03:30:11;;;;;;;7.82;3.70;;;10.80;99.90;;;;;;5052184;28;20044;-70
2023/05/20 03:32:37;;;;;;;12.60;3.40;;;10.80;99.90;;;;;;5051621;28;20094;-70
2023/05/20 03:35:03;;;;;;;8.25;3.22;;;10.80;99.90;;;;;;5054079;28;20432;-71
2023/05/20 03:37:28;;;;;;;9.00;3.83;;;10.90;99.90;;;;;;5047011;28;20041;-70
2023/05/20 03:39:54;;;;;;;6.82;3.22;;;10.90;99.90;;;;;;5070490;28;20088;-70
2023/05/20 03:42:19;;;;;;;5.85;3.15;;;10.90;99.90;;;;;;5039518;28;20088;-71
2023/05/20 03:44:45;;;;;;;7.50;3.13;;;10.90;99.90;;;;;;5033744;28;20049;-71
2023/05/20 03:47:11;;;;;;;7.80;3.28;;;10.90;99.90;;;;;;5029095;28;20379;-70
2023/05/20 03:49:36;;;;;;;7.15;3.10;;;10.90;99.90;;;;;;5052781;28;20041;-70
2023/05/20 03:52:02;;;;;;;6.90;3.03;;;10.90;99.90;;;;;;5048032;28;20045;-71
2023/05/20 03:54:30;;;;;;;8.45;3.15;;;10.90;99.90;;;;;;5054723;28;20159;-71
2023/05/20 03:56:56;;;;;;;9.23;2.92;;;10.90;99.90;;;;;;5051397;28;20081;-71
2023/05/20 03:59:21;;;;;;;8.05;2.65;;;10.90;99.90;;;;;;5053010;28;20083;-70
2023/05/20 04:01:47;;;;;;;8.10;2.95;;;11.00;99.90;;;;;;5038709;28;20103;-70
2023/05/20 04:04:13;;;;;;;7.57;3.00;;;11.00;99.90;;;;;;5058140;28;20045;-70
2023/05/20 04:06:39;;;;;;;7.10;2.75;;;11.00;99.90;;;;;;5033636;28;20049;-70
2023/05/20 04:09:05;;;;;;;8.38;3.10;;;10.90;99.90;;;;;;5052651;28;20037;-71
2023/05/20 04:11:30;;;;;;;7.63;2.83;;;10.90;99.90;;;;;;5048554;28;20044;-71
2023/05/20 04:13:59;;;;;;;7.38;2.95;;;10.90;99.90;;;;;;5022514;28;20511;-70
2023/05/20 04:16:24;;;;;;;7.88;2.70;;;10.90;99.90;;;;;;5057768;28;20077;-70
2023/05/20 04:18:51;;;;;;;6.05;2.80;;;10.90;99.90;;;;;;5040907;28;20454;-70
2023/05/20 04:21:18;;;;;;;5.22;2.53;;;10.80;99.90;;;;;;5046009;28;20082;-70
2023/05/20 04:23:43;;;;;;;7.72;2.60;;;10.90;99.90;;;;;;5044859;28;20047;-70
2023/05/20 04:26:09;;;;;;;6.20;2.90;;;10.90;99.90;;;;;;5051539;28;20544;-70
2023/05/20 04:28:36;;;;;;;6.38;2.58;;;11.00;99.90;;;;;;5055783;28;20037;-70
2023/05/20 04:31:05;;;;;;;6.10;2.45;;;11.00;99.90;;;;;;5042198;28;20048;-70
2023/05/20 04:33:31;;;;;;;8.65;2.60;;;11.00;99.90;;;;;;5053097;28;20044;-70
2023/05/20 04:35:57;;;;;;;5.97;2.55;;;11.10;99.90;;;;;;5068657;28;20077;-70
2023/05/20 04:38:29;;;;;;;4.70;2.38;;;11.20;99.90;;;;;;5053096;28;20052;-71
2023/05/20 04:40:58;;;;;;;6.07;2.70;;;11.20;99.90;;;;;;5052651;28;20044;-70
2023/05/20 04:43:30;;;;;;;4.18;2.20;;;11.30;99.90;;;;;;5045804;28;20095;-70
2023/05/20 04:45:56;;;;;;;4.82;2.22;;;11.40;99.90;;;;;;5052764;28;20405;-71
2023/05/20 04:48:22;;;;;;;6.22;2.42;;;11.50;99.90;;;;;;5051267;28;20033;-70
2023/05/20 04:50:48;;;;;;;5.30;2.30;;;11.50;99.90;;;;;;5053842;28;20040;-70
2023/05/20 04:53:16;;;;;;;6.85;2.38;;;11.50;99.90;;;;;;5058080;28;20120;-70
2023/05/20 04:55:42;;;;;;;4.82;2.20;;;11.60;99.90;;;;;;5053749;28;20040;-70
2023/05/20 04:58:14;;;;;;;6.05;2.30;;;11.60;99.90;;;;;;5051433;28;20409;-71
2023/05/20 05:00:41;;;;;;;6.75;2.42;;;11.60;99.90;;;;;;5051149;28;20059;-70
2023/05/20 05:03:07;;;;;;;8.05;2.50;;;11.70;99.90;;;;;;5043410;28;20051;-70
2023/05/20 05:05:37;;;;;;;5.47;2.17;;;11.70;99.90;;;;;;5050480;28;20446;-71
2023/05/20 05:08:04;;;;;;;5.88;2.30;;;11.70;99.90;;;;;;5033978;28;20047;-70
2023/05/20 05:10:30;;;;;;;6.97;2.30;;;11.70;99.90;;;;;;5051292;28;20420;-70
2023/05/20 05:12:56;;;;;;;6.97;2.88;;;11.70;99.90;;;;;;5053368;28;20033;-70
2023/05/20 05:15:22;;;;;;;5.00;2.00;;;11.60;99.90;;;;;;5052173;28;20033;-70
2023/05/20 05:17:47;;;;;;;6.55;2.35;;;11.70;99.90;;;;;;5046788;28;20072;-70
2023/05/20 05:20:13;;;;;;;6.43;1.90;;;11.70;99.90;;;;;;5032145;28;20049;-70
2023/05/20 05:22:40;;;;;;;7.07;2.15;;;11.90;99.90;;;;;;5033124;28;20454;-70
2023/05/20 05:25:07;;;;;;;5.75;1.90;;;11.90;99.90;;;;;;5053709;28;20103;-71
2023/05/20 05:27:33;;;;;;;4.82;1.83;;;12.00;99.90;;;;;;5032371;28;20038;-71
2023/05/20 05:29:59;;;;;;;3.75;1.70;;;12.00;99.90;;;;;;5046766;28;20041;-71
2023/05/20 05:32:25;;;;;;;4.03;1.40;;;12.10;99.90;;;;;;5047190;28;20451;-71
2023/05/20 05:34:50;;;;;;;5.45;1.98;;;12.10;99.90;;;;;;5039735;28;20037;-71
2023/05/20 05:37:16;;;;;;;4.68;1.70;;;12.20;99.90;;;;;;5051211;28;20068;-71
2023/05/20 05:39:41;;;;;;;3.75;1.52;;;12.40;99.90;;;;;;5033748;28;20094;-71
2023/05/20 05:42:07;;;;;;;6.22;2.03;;;12.40;99.90;;;;;;5051807;28;20508;-71
2023/05/20 05:44:32;;;;;;;4.72;1.80;;;12.40;99.90;;;;;;5049104;28;20105;-70
2023/05/20 05:46:59;;;;;;;5.85;1.60;;;12.50;99.90;;;;;;5037403;28;20044;-70
2023/05/20 05:49:24;;;;;;;4.43;1.67;;;12.50;99.90;;;;;;5064701;28;20033;-70
2023/05/20 05:51:50;;;;;;;4.75;1.50;;;12.50;99.90;;;;;;5045518;28;20067;-71
2023/05/20 05:54:16;;;;;;;4.53;1.50;;;12.60;99.90;;;;;;5040023;28;20075;-70
2023/05/20 05:56:42;;;;;;;5.03;1.80;;;12.70;99.90;;;;;;5040814;28;20037;-70
2023/05/20 05:59:07;;;;;;;5.43;1.73;;;12.70;99.90;;;;;;5038965;28;20049;-71
2023/05/20 06:01:33;;;;;;;4.97;1.60;;;12.80;99.90;;;;;;5033800;28;20464;-70
2023/05/20 06:03:59;;;;;;;4.45;1.60;;;12.90;99.90;;;;;;5032213;28;20117;-71
2023/05/20 06:06:25;;;;;;;4.47;1.77;;;13.00;99.90;;;;;;5044695;28;20041;-71
2023/05/20 06:08:51;;;;;;;3.50;1.45;;;13.10;99.90;;;;;;5046754;28;20041;-71
2023/05/20 06:11:16;;;;;;;4.25;1.65;;;13.20;99.90;;;;;;5036235;28;20041;-71
2023/05/20 06:13:42;;;;;;;5.13;1.60;;;13.30;99.90;;;;;;5046451;28;20044;-70
2023/05/20 06:16:07;;;;;;;4.95;1.77;;;13.40;99.90;;;;;;5043786;28;20037;-71
2023/05/20 06:18:33;;;;;;;3.35;1.30;;;13.40;99.90;;;;;;5049894;28;20041;-71
2023/05/20 06:20:58;;;;;;;2.85;1.30;;;13.60;99.90;;;;;;5046093;28;20811;-71
2023/05/20 06:23:25;;;;;;;6.03;1.48;;;13.60;99.90;;;;;;5032767;28;20061;-71
2023/05/20 06:25:50;;;;;;;3.92;1.50;;;13.80;99.90;;;;;;5047722;28;20041;-70
2023/05/20 06:28:16;;;;;;;6.07;1.60;;;13.90;99.90;;;;;;5046511;28;20047;-71
2023/05/20 06:30:42;;;;;;;3.15;1.40;;;13.90;99.90;;;;;;5038317;28;20063;-71
2023/05/20 06:33:08;;;;;;;6.05;1.60;;;14.00;99.90;;;;;;5019214;28;20045;-71
2023/05/20 06:35:33;;;;;;;4.18;1.52;;;14.00;99.90;;;;;;5030807;28;20466;-71
2023/05/20 06:38:02;;;;;;;3.53;1.50;;;14.10;99.90;;;;;;5047161;28;20068;-72
2023/05/20 06:40:28;;;;;;;4.68;1.40;;;14.20;99.90;;;;;;5050152;28;20397;-71
2023/05/20 06:42:53;;;;;;;4.57;1.70;;;14.20;99.90;;;;;;5036523;28;20037;-72
2023/05/20 06:45:20;;;;;;;7.00;1.35;;;14.30;99.90;;;;;;5045179;28;20041;-71
2023/05/20 06:47:47;;;;;;;4.25;1.88;;;14.40;99.90;;;;;;5052356;28;20141;-71
2023/05/20 06:50:13;;;;;;;4.75;1.60;;;14.40;99.90;;;;;;5050973;28;20048;-75
2023/05/20 06:52:39;;;;;;;2.42;1.15;;;14.40;99.90;;;;;;5024805;28;20053;-71
2023/05/20 06:55:05;;;;;;;4.18;1.60;;;14.50;99.90;;;;;;5041069;28;20482;-70
2023/05/20 06:57:31;;;;;;;4.47;1.40;;;14.40;99.90;;;;;;5054366;28;20493;-71
2023/05/20 06:59:57;;;;;;;2.92;1.48;;;14.50;99.90;;;;;;5055818;28;20136;-71
2023/05/20 07:02:24;;;;;;;4.72;1.63;;;14.60;99.90;;;;;;5047433;28;20112;-71
2023/05/20 07:04:49;;;;;;;5.22;1.60;;;14.70;99.90;;;;;;5054105;28;20382;-71
2023/05/20 07:07:15;;;;;;;3.65;1.40;;;14.70;99.90;;;;;;5054398;28;20044;-71
2023/05/20 07:09:42;;;;;;;4.40;1.80;;;14.80;99.90;;;;;;5054078;28;20040;-68
2023/05/20 07:12:07;;;;;;;4.43;1.60;;;14.80;99.90;;;;;;5033838;28;20052;-68
2023/05/20 07:14:33;;;;;;;5.38;1.85;;;14.90;99.90;;;;;;5028842;28;20135;-70
2023/05/20 07:16:59;;;;;;;4.07;1.35;;;14.90;99.90;;;;;;5036704;28;20473;-68
2023/05/20 07:19:24;;;;;;;6.65;1.75;;;14.90;99.90;;;;;;5052436;28;20049;-68
2023/05/20 07:21:50;;;;;;;5.07;1.50;;;15.00;99.90;;;;;;5051024;28;20128;-68
2023/05/20 07:24:16;;;;;;;6.68;1.77;;;15.00;99.90;;;;;;5052095;28;20481;-68
2023/05/20 07:26:41;;;;;;;5.85;1.70;;;15.00;99.90;;;;;;5053597;28;20052;-68
2023/05/20 07:29:09;;;;;;;3.92;1.60;;;15.00;99.90;;;;;;5053606;28;20049;-68
2023/05/20 07:31:34;;;;;;;3.83;1.63;;;15.00;99.90;;;;;;5051631;28;20049;-69
2023/05/20 07:34:00;;;;;;;5.13;1.90;;;15.10;99.90;;;;;;5042701;28;20371;-68
2023/05/20 07:36:29;;;;;;;4.95;1.80;;;15.10;99.90;;;;;;5039684;28;20045;-69
2023/05/20 07:38:55;;;;;;;4.93;1.75;;;15.10;99.90;;;;;;5035613;28;20434;-69
2023/05/20 07:41:21;;;;;;;5.95;1.77;;;15.10;99.90;;;;;;5041218;28;20072;-69
2023/05/20 07:43:47;;;;;;;3.72;1.55;;;15.20;99.90;;;;;;5032786;28;20041;-69
2023/05/20 07:46:12;;;;;;;5.22;1.83;;;15.30;99.90;;;;;;5033753;28;20452;-69
2023/05/20 07:48:38;;;;;;;3.53;1.50;;;15.30;99.90;;;;;;5044398;28;20130;-69
2023/05/20 07:51:03;;;;;;;5.50;1.80;;;15.40;99.90;;;;;;5051779;28;20493;-69
2023/05/20 07:53:29;;;;;;;4.25;1.50;;;15.40;99.90;;;;;;5038964;28;20053;-69
2023/05/20 07:55:55;;;;;;;4.40;1.63;;;15.50;99.90;;;;;;5053004;28;20057;-69
2023/05/20 07:58:21;;;;;;;5.18;2.10;;;15.60;99.90;;;;;;5052380;28;20546;-69
2023/05/20 08:00:46;;;;;;;4.80;1.92;;;15.70;99.90;;;;;;5051098;28;20448;-69
2023/05/20 08:03:12;;;;;;;3.97;1.90;;;15.60;99.90;;;;;;5069776;28;20440;-69
2023/05/20 08:05:39;;;;;;;3.88;2.00;;;15.60;99.90;;;;;;5056915;28;20049;-68
2023/05/20 08:08:05;;;;;;;8.52;1.70;;;15.70;99.90;;;;;;5020303;28;20037;-68
2023/05/20 08:10:31;;;;;;;3.75;1.92;;;15.90;99.90;;;;;;5037945;28;20036;-69
2023/05/20 08:12:57;;;;;;;4.75;2.10;;;15.90;99.90;;;;;;5034747;28;20164;-71
2023/05/20 08:15:22;;;;;;;7.28;2.58;;;15.90;99.90;;;;;;5042569;28;20033;-69
2023/05/20 08:17:48;;;;;;;5.63;2.22;;;16.00;99.90;;;;;;5052886;28;20095;-69
2023/05/20 08:20:13;;;;;;;4.22;1.88;;;16.00;99.90;;;;;;5040063;28;20083;-70
2023/05/20 08:22:39;;;;;;;5.57;2.10;;;16.10;99.90;;;;;;5032330;28;20066;-69
2023/05/20 08:25:07;;;;;;;4.05;1.75;;;16.20;99.90;;;;;;5039079;28;20045;-70
2023/05/20 08:27:34;;;;;;;4.65;2.20;;;16.20;99.90;;;;;;5051472;28;20091;-70
2023/05/20 08:29:59;;;;;;;5.03;2.00;;;16.30;99.90;;;;;;5047850;28;20111;-70
2023/05/20 08:32:25;;;;;;;5.72;2.10;;;16.30;99.90;;;;;;5052640;28;20468;-69
2023/05/20 08:34:51;;;;;;;6.15;2.20;;;16.50;99.90;;;;;;5050731;28;20117;-69
2023/05/20 08:37:16;;;;;;;5.57;2.22;;;16.60;99.90;;;;;;5052759;28;20068;-70
2023/05/20 08:39:45;;;;;;;4.68;2.00;;;16.50;99.90;;;;;;5053451;28;20120;-70
2023/05/20 08:42:12;;;;;;;7.20;2.33;;;16.60;99.90;;;;;;5049234;28;20462;-69
2023/05/20 08:44:39;;;;;;;4.97;2.15;;;16.70;99.90;;;;;;5047868;28;20072;-70
2023/05/20 08:47:06;;;;;;;4.65;2.28;;;16.80;99.90;;;;;;5053088;28;20052;-69
2023/05/20 08:49:32;;;;;;;6.28;2.38;;;17.00;99.90;;;;;;5050936;28;20432;-70
2023/05/20 08:52:00;;;;;;;5.55;2.70;;;17.00;99.90;;;;;;5047427;28;20042;-70
2023/05/20 08:54:36;;;;;;;6.15;2.47;;;17.00;99.90;;;;;;5059457;28;20438;-70
2023/05/20 08:57:03;;;;;;;5.88;2.42;;;17.20;99.90;;;;;;5042550;28;20053;-71
2023/05/20 08:59:29;;;;;;;5.03;2.13;;;17.20;99.90;;;;;;5031885;28;20041;-71
2023/05/20 09:01:55;;;;;;;6.07;2.55;;;17.30;99.90;;;;;;5049947;28;20094;-72
2023/05/20 09:04:20;;;;;;;4.55;1.88;;;17.40;99.90;;;;;;5050377;28;20032;-82
2023/05/20 09:06:46;;;;;;;5.18;2.50;;;17.40;99.90;;;;;;5066641;28;20049;-75
2023/05/20 09:09:13;;;;;;;4.65;2.10;;;17.50;99.90;;;;;;5032601;28;20061;-74
2023/05/20 09:11:40;;;;;;;5.90;2.10;;;17.50;99.90;;;;;;5042981;28;20045;-74
2023/05/20 09:14:06;;;;;;;5.05;2.25;;;17.60;99.90;;;;;;5051243;28;20524;-72
2023/05/20 09:16:32;;;;;;;6.47;2.15;;;17.80;99.90;;;;;;5052350;28;20037;-72
2023/05/20 09:18:58;;;;;;;7.78;2.65;;;17.90;99.90;;;;;;5048831;28;20527;-72
2023/05/20 09:21:27;;;;;;;9.73;2.85;;;17.90;99.90;;;;;;5050573;28;20045;-69
2023/05/20 09:23:56;;;;;;;5.93;2.35;;;17.80;99.90;;;;;;5051223;28;20037;-74
2023/05/20 09:26:22;;;;;;;5.28;2.25;;;18.00;99.90;;;;;;5047625;28;20474;-73
2023/05/20 09:28:48;;;;;;;7.15;2.53;;;18.00;99.90;;;;;;5038915;28;20443;-73
2023/05/20 09:31:14;;;;;;;6.60;2.42;;;18.00;99.90;;;;;;5031563;28;20120;-73
2023/05/20 09:33:40;;;;;;;6.05;2.50;;;18.00;99.90;;;;;;5037280;28;20032;-73
2023/05/20 09:36:10;;;;;;;6.75;2.40;;;18.00;99.90;;;;;;5050634;28;20394;-74
2023/05/20 09:38:38;;;;;;;6.47;2.58;;;18.20;99.90;;;;;;5050585;28;20127;-74
2023/05/20 09:41:11;;;;;;;5.28;2.20;;;18.20;99.90;;;;;;5066786;28;20098;-74
2023/05/20 09:43:41;;;;;;;6.20;2.30;;;18.30;99.90;;;;;;5037035;28;20067;-75
2023/05/20 09:46:07;;;;;;;6.07;2.30;;;18.30;99.90;;;;;;5050419;28;20080;-75
2023/05/20 09:48:37;;;;;;;6.75;2.47;;;18.30;99.90;;;;;;5051653;28;20037;-75
2023/05/20 09:51:04;;;;;;;5.82;2.30;;;18.50;99.90;;;;;;5058763;28;20034;-74
2023/05/20 09:53:30;;;;;;;7.07;2.42;;;18.60;99.90;;;;;;5045126;28;20106;-74
2023/05/20 09:55:56;;;;;;;8.82;2.63;;;18.40;99.90;;;;;;5042712;28;20056;-74
2023/05/20 09:58:23;;;;;;;6.95;3.00;;;18.40;99.90;;;;;;5051796;28;20045;-74
2023/05/20 10:00:49;;;;;;;6.13;2.47;;;18.30;99.90;;;;;;5033112;28;20056;-74
2023/05/20 10:03:17;;;;;;;5.03;2.30;;;18.50;99.90;;;;;;5048496;28;20406;-74
2023/05/20 10:06:07;;;;;;;5.90;2.40;;;18.50;99.90;;;;;;5060131;28;20519;-75
2023/05/20 10:09:24;;;;;;;4.18;1.83;;;18.70;99.90;;;;;;5021270;28;20045;-74
2023/05/20 10:12:06;;;;;;;6.82;2.40;;;18.60;99.90;;;;;;5028608;28;20195;-74
2023/05/20 10:14:58;;;;;;;9.48;2.67;;;18.60;99.90;;;;;;5031752;28;20087;-74
2023/05/20 10:18:04;;;;;;;4.20;2.08;;;18.80;99.90;;;;;;5044468;28;20049;-75
2023/05/20 10:20:30;;;;;;;6.07;2.33;;;18.70;99.90;;;;;;5051746;28;20033;-75
2023/05/20 10:22:57;;;;;;;5.57;2.00;;;18.90;99.90;;;;;;5053268;28;20041;-74
2023/05/20 10:25:25;;;;;;;5.03;2.28;;;18.70;99.90;;;;;;5050010;28;20120;-75
2023/05/20 10:27:51;;;;;;;4.63;3.17;;;18.60;99.90;;;;;;5054279;28;20037;-74
2023/05/20 10:30:21;;;;;;;5.80;2.17;;;18.80;99.90;;;;;;5055851;28;20043;-73
2023/05/20 10:32:59;;;;;;;8.68;2.38;;;18.80;99.90;;;;;;5053854;28;20048;-69
2023/05/20 10:35:26;;;;;;;6.00;2.20;;;18.80;99.90;;;;;;5055984;28;20485;-82
2023/05/20 10:37:53;;;;;;;6.25;2.58;;;18.90;99.90;;;;;;5040400;28;20124;-81
2023/05/20 10:40:20;;;;;;;7.65;2.28;;;18.80;99.90;;;;;;5039360;28;20124;-82
2023/05/20 10:42:47;;;;;;;6.10;2.35;;;19.10;99.90;;;;;;5038846;28;20048;-81
2023/05/20 10:45:28;;;;;;;5.68;1.98;;;19.00;99.90;;;;;;5071537;28;20045;-80
2023/05/20 10:47:57;;;;;;;5.50;2.13;;;18.80;99.90;;;;;;5053163;28;20041;-81
2023/05/20 10:50:37;;;;;;;4.95;2.13;;;18.80;99.90;;;;;;5054389;28;20055;-80
2023/05/20 10:53:10;;;;;;;5.70;2.40;;;18.60;99.90;;;;;;5052739;28;20075;-85
2023/05/20 10:55:38;;;;;;;5.68;1.98;;;18.90;99.90;;;;;;5051604;28;20052;-80
2023/05/20 10:58:05;;;;;;;5.22;2.08;;;18.90;99.90;;;;;;5034349;28;20505;-81
2023/05/20 11:00:35;;;;;;;5.00;2.10;;;19.00;97.40;;;;;;5049391;28;20037;-80
2023/05/20 11:03:02;;;;;;;4.80;2.22;;;19.10;99.90;;;;;;5048282;28;20045;-73
2023/05/20 11:05:29;;;;;;;6.28;1.98;;;19.00;98.80;;;;;;5036210;28;20073;-84
2023/05/20 11:08:06;;;;;;;4.88;1.95;;;19.00;99.50;;;;;;5038634;28;20041;-81
2023/05/20 11:10:33;;;;;;;4.90;1.90;;;19.10;99.60;;;;;;5034810;28;20096;-80
2023/05/20 11:13:01;;;;;;;6.07;2.10;;;19.10;98.20;;;;;;5061785;28;20060;-81
2023/05/20 11:15:27;;;;;;;6.25;2.28;;;19.30;99.20;;;;;;5039050;28;20096;-81
2023/05/20 11:17:58;;;;;;;6.57;1.95;;;19.20;98.30;;;;;;5038904;28;20045;-83
2023/05/20 11:20:25;;;;;;;7.13;2.55;;;18.90;97.50;;;;;;5043545;28;20049;-79
2023/05/20 11:22:51;;;;;;;4.70;2.17;;;18.90;97.40;;;;;;5058751;28;20053;-81
2023/05/20 11:25:18;;;;;;;6.03;2.20;;;18.90;98.10;;;;;;5033418;28;20053;-82
2023/05/20 11:27:44;;;;;;;5.45;2.25;;;19.10;97.10;;;;;;5044580;28;20041;-81
2023/05/20 11:30:15;;;;;;;6.18;2.08;;;19.00;98.60;;;;;;5037536;28;20082;-84
2023/05/20 11:32:42;;;;;;;6.10;2.38;;;19.10;96.90;;;;;;5039684;28;20076;-83
2023/05/20 11:35:21;;;;;;;4.97;1.90;;;19.00;97.90;;;;;;5053362;28;20120;-83
2023/05/20 11:37:53;;;;;;;3.53;1.70;;;19.00;99.90;;;;;;5052687;28;20098;-84
2023/05/20 11:40:23;;;;;;;5.20;1.83;;;19.20;97.70;;;;;;5053211;28;20401;-82
2023/05/20 11:42:55;;;;;;;4.75;1.98;;;19.30;95.60;;;;;;5052757;28;20041;-82
2023/05/20 11:45:21;;;;;;;;;;;19.20;99.20;;;;;;5023476;28;20386;-81
2023/05/20 11:47:58;;;;;;;4.25;1.70;;;19.20;99.30;;;;;;5033224;28;19931;-81
2023/05/20 11:50:23;;;;;;;4.63;1.73;;;19.30;98.50;;;;;;5044238;28;20402;-81
2023/05/20 11:52:58;;;;;;;6.72;2.10;;;19.20;97.90;;;;;;5050978;28;20049;-82
2023/05/20 11:55:25;;;;;;;4.65;1.60;;;19.30;97.90;;;;;;5050453;28;20048;-84
2023/05/20 11:57:51;;;;;;;6.85;2.40;;;19.20;98.20;;;;;;5038745;28;20041;-84
2023/05/20 12:00:17;;;;;;;6.07;2.00;;;19.10;99.00;;;;;;5053008;28;20075;-82
2023/05/20 12:02:43;;;;;;;4.15;1.83;;;19.00;99.00;;;;;;5053792;28;20079;-81
2023/05/20 12:05:09;;;;;;;5.72;2.13;;;18.90;99.40;;;;;;5053818;28;20041;-81
2023/05/20 12:07:35;;;;;;;6.05;2.22;;;18.80;98.60;;;;;;5068009;28;20382;-81
2023/05/20 12:10:02;;;;;;;6.25;2.60;;;18.70;99.30;;;;;;5052894;28;20090;-84
2023/05/20 12:12:28;;;;;;;5.82;2.10;;;18.90;99.20;;;;;;5038527;28;20120;-83
2023/05/20 12:14:53;;;;;;;3.55;1.73;;;18.80;97.80;;;;;;5048599;28;20123;-82
2023/05/20 12:17:19;;;;;;;5.25;1.88;;;18.90;99.60;;;;;;5054350;28;20120;-79
2023/05/20 12:19:45;;;;;;;5.60;2.40;;;18.90;98.70;;;;;;5053090;28;20112;-83
2023/05/20 12:22:10;;;;;;;5.82;2.28;;;18.90;98.00;;;;;;5052709;28;20044;-72
2023/05/20 12:24:36;;;;;;;5.60;2.33;;;18.90;97.30;;;;;;5028274;28;20052;-69
2023/05/20 12:27:02;;;;;;;3.38;1.40;;;18.90;97.90;;;;;;5018483;28;20049;-74
2023/05/20 12:29:32;;;;;;;3.78;1.92;;;19.10;99.00;;;;;;5053304;28;20087;-82
2023/05/20 12:31:57;;;;;;;6.93;2.45;;;19.10;96.50;;;;;;5063036;28;20495;-82
2023/05/20 12:34:23;;;;;;;4.30;2.10;;;19.10;98.60;;;;;;5053429;28;20037;-82
2023/05/20 12:36:49;;;;;;;7.95;2.38;;;19.00;97.30;;;;;;5051770;28;20064;-81
2023/05/20 12:39:17;;;;;;;10.00;2.47;;;19.00;98.50;;;;;;5067334;28;20045;-82
2023/05/20 12:41:43;;;;;;;8.00;2.50;;;19.00;97.00;;;;;;5042901;28;20053;-74
2023/05/20 12:44:09;;;;;;;5.65;2.10;;;18.90;96.20;;;;;;5043304;28;20126;-83
2023/05/20 12:46:36;;;;;;;5.88;1.90;;;19.00;96.00;;;;;;5049134;28;20489;-74